sensor_id;sensor_type;location;lat;lon;timestamp;P1;durP1;ratioP1;P2;durP2;ratioP2
18899;SDS011;9582;52.018;6.306;2023-03-14T00:02:21;9.60;;;2.90;;
18899;SDS011;9582;52.018;6.306;2023-03-14T00:04:48;6.97;;;2.70;;
18899;SDS011;9582;52.018;6.306;2023-03-14T00:07:14;7.03;;;2.40;;
18899;SDS011;9582;52.018;6.306;2023-03-14T00:09:41;6.97;;;2.27;;
18899;SDS011;9582;52.018;6.306;2023-03-14T00:12:08;6.77;;;2.40;;
18899;SDS011;9582;52.018;6.306;2023-03-14T00:14:35;7.13;;;2.47;;
18899;SDS011;9582;52.018;6.306;2023-03-14T00:17:02;6.40;;;2.70;;
18899;SDS011;9582;52.018;6.306;2023-03-14T00:19:29;5.80;;;2.23;;
18899;SDS011;9582;52.018;6.306;2023-03-14T00:21:55;6.33;;;2.30;;
18899;SDS011;9582;52.018;6.306;2023-03-14T00:24:22;5.53;;;2.40;;
18899;SDS011;9582;52.018;6.306;2023-03-14T00:26:48;7.07;;;2.40;;
18899;SDS011;9582;52.018;6.306;2023-03-14T00:29:15;6.33;;;2.50;;
18899;SDS011;9582;52.018;6.306;2023-03-14T00:31:44;9.07;;;2.60;;
18899;SDS011;9582;52.018;6.306;2023-03-14T00:34:12;3.97;;;2.20;;
18899;SDS011;9582;52.018;6.306;2023-03-14T00:36:38;7.13;;;2.43;;
18899;SDS011;9582;52.018;6.306;2023-03-14T00:39:05;8.23;;;2.30;;
18899;SDS011;9582;52.018;6.306;2023-03-14T00:41:31;7.50;;;2.53;;
18899;SDS011;9582;52.018;6.306;2023-03-14T00:43:59;8.27;;;2.53;;
18899;SDS011;9582;52.018;6.306;2023-03-14T00:46:26;6.77;;;2.40;;
18899;SDS011;9582;52.018;6.306;2023-03-14T00:48:52;7.30;;;2.53;;
18899;SDS011;9582;52.018;6.306;2023-03-14T00:51:20;7.37;;;2.33;;
18899;SDS011;9582;52.018;6.306;2023-03-14T00:53:47;7.83;;;2.50;;
18899;SDS011;9582;52.018;6.306;2023-03-14T00:56:13;5.03;;;2.70;;
18899;SDS011;9582;52.018;6.306;2023-03-14T00:58:40;5.40;;;2.30;;
18899;SDS011;9582;52.018;6.306;2023-03-14T01:01:07;7.50;;;2.53;;
18899;SDS011;9582;52.018;6.306;2023-03-14T01:03:35;7.13;;;2.40;;
18899;SDS011;9582;52.018;6.306;2023-03-14T01:06:09;6.30;;;2.00;;
18899;SDS011;9582;52.018;6.306;2023-03-14T01:08:38;5.90;;;2.33;;
18899;SDS011;9582;52.018;6.306;2023-03-14T01:11:05;5.80;;;2.20;;
18899;SDS011;9582;52.018;6.306;2023-03-14T01:13:33;5.47;;;2.30;;
18899;SDS011;9582;52.018;6.306;2023-03-14T01:16:01;7.47;;;2.47;;
18899;SDS011;9582;52.018;6.306;2023-03-14T01:18:30;8.00;;;2.60;;
18899;SDS011;9582;52.018;6.306;2023-03-14T01:20:57;8.07;;;2.23;;
18899;SDS011;9582;52.018;6.306;2023-03-14T01:23:24;6.23;;;2.27;;
18899;SDS011;9582;52.018;6.306;2023-03-14T01:25:52;8.30;;;2.67;;
18899;SDS011;9582;52.018;6.306;2023-03-14T01:28:18;4.83;;;2.20;;
18899;SDS011;9582;52.018;6.306;2023-03-14T01:30:45;7.37;;;2.30;;
18899;SDS011;9582;52.018;6.306;2023-03-14T01:33:12;7.07;;;2.23;;
18899;SDS011;9582;52.018;6.306;2023-03-14T01:35:42;7.47;;;2.00;;
18899;SDS011;9582;52.018;6.306;2023-03-14T01:38:08;9.30;;;2.40;;
18899;SDS011;9582;52.018;6.306;2023-03-14T01:40:40;5.20;;;1.67;;
18899;SDS011;9582;52.018;6.306;2023-03-14T01:43:14;4.97;;;2.00;;
18899;SDS011;9582;52.018;6.306;2023-03-14T01:48:43;5.60;;;2.00;;
18899;SDS011;9582;52.018;6.306;2023-03-14T01:51:15;5.53;;;1.80;;
18899;SDS011;9582;52.018;6.306;2023-03-14T01:53:45;5.63;;;2.40;;
18899;SDS011;9582;52.018;6.306;2023-03-14T01:56:13;5.47;;;1.67;;
18899;SDS011;9582;52.018;6.306;2023-03-14T01:58:43;6.17;;;1.83;;
18899;SDS011;9582;52.018;6.306;2023-03-14T02:01:13;7.47;;;2.10;;
18899;SDS011;9582;52.018;6.306;2023-03-14T02:03:44;5.47;;;1.70;;
18899;SDS011;9582;52.018;6.306;2023-03-14T02:06:14;5.17;;;1.60;;
18899;SDS011;9582;52.018;6.306;2023-03-14T02:08:43;5.60;;;1.70;;
18899;SDS011;9582;52.018;6.306;2023-03-14T02:11:15;4.40;;;1.80;;
18899;SDS011;9582;52.018;6.306;2023-03-14T02:14:06;7.97;;;2.07;;
18899;SDS011;9582;52.018;6.306;2023-03-14T02:16:58;6.90;;;1.77;;
18899;SDS011;9582;52.018;6.306;2023-03-14T02:19:52;3.73;;;0.83;;
18899;SDS011;9582;52.018;6.306;2023-03-14T02:22:35;5.80;;;1.60;;
18899;SDS011;9582;52.018;6.306;2023-03-14T02:25:08;5.67;;;1.30;;
18899;SDS011;9582;52.018;6.306;2023-03-14T02:27:42;4.67;;;1.30;;
18899;SDS011;9582;52.018;6.306;2023-03-14T02:30:11;6.47;;;1.60;;
18899;SDS011;9582;52.018;6.306;2023-03-14T02:32:41;4.53;;;1.17;;
18899;SDS011;9582;52.018;6.306;2023-03-14T02:35:14;4.40;;;1.20;;
18899;SDS011;9582;52.018;6.306;2023-03-14T02:37:46;6.13;;;1.27;;
18899;SDS011;9582;52.018;6.306;2023-03-14T02:40:15;4.93;;;1.43;;
18899;SDS011;9582;52.018;6.306;2023-03-14T02:42:44;6.20;;;1.60;;
18899;SDS011;9582;52.018;6.306;2023-03-14T02:48:02;4.37;;;1.50;;
18899;SDS011;9582;52.018;6.306;2023-03-14T02:50:36;5.23;;;1.80;;
18899;SDS011;9582;52.018;6.306;2023-03-14T02:53:03;9.37;;;1.40;;
18899;SDS011;9582;52.018;6.306;2023-03-14T02:55:30;3.83;;;1.10;;
18899;SDS011;9582;52.018;6.306;2023-03-14T02:58:02;4.53;;;1.47;;
18899;SDS011;9582;52.018;6.306;2023-03-14T03:00:29;9.33;;;1.70;;
18899;SDS011;9582;52.018;6.306;2023-03-14T03:02:56;4.70;;;1.73;;
18899;SDS011;9582;52.018;6.306;2023-03-14T03:05:23;8.07;;;2.07;;
18899;SDS011;9582;52.018;6.306;2023-03-14T03:07:49;6.47;;;1.37;;
18899;SDS011;9582;52.018;6.306;2023-03-14T03:10:16;6.60;;;1.70;;
18899;SDS011;9582;52.018;6.306;2023-03-14T03:12:43;7.60;;;1.70;;
18899;SDS011;9582;52.018;6.306;2023-03-14T03:15:11;4.67;;;1.40;;
18899;SDS011;9582;52.018;6.306;2023-03-14T03:17:38;3.67;;;1.90;;
18899;SDS011;9582;52.018;6.306;2023-03-14T03:20:05;7.43;;;1.70;;
18899;SDS011;9582;52.018;6.306;2023-03-14T03:22:34;5.50;;;1.80;;
18899;SDS011;9582;52.018;6.306;2023-03-14T03:25:01;8.60;;;1.80;;
18899;SDS011;9582;52.018;6.306;2023-03-14T03:27:29;8.30;;;2.20;;
18899;SDS011;9582;52.018;6.306;2023-03-14T03:29:57;8.50;;;1.53;;
18899;SDS011;9582;52.018;6.306;2023-03-14T03:32:25;7.67;;;1.90;;
18899;SDS011;9582;52.018;6.306;2023-03-14T03:34:51;4.47;;;1.90;;
18899;SDS011;9582;52.018;6.306;2023-03-14T03:37:18;9.60;;;1.80;;
18899;SDS011;9582;52.018;6.306;2023-03-14T03:39:45;4.27;;;1.77;;
18899;SDS011;9582;52.018;6.306;2023-03-14T03:42:12;9.50;;;2.00;;
18899;SDS011;9582;52.018;6.306;2023-03-14T03:44:38;7.87;;;2.03;;
18899;SDS011;9582;52.018;6.306;2023-03-14T03:47:05;9.23;;;2.20;;
18899;SDS011;9582;52.018;6.306;2023-03-14T03:49:33;8.30;;;1.70;;
18899;SDS011;9582;52.018;6.306;2023-03-14T03:52:00;6.20;;;1.90;;
18899;SDS011;9582;52.018;6.306;2023-03-14T03:54:26;9.90;;;1.87;;
18899;SDS011;9582;52.018;6.306;2023-03-14T03:56:53;8.00;;;1.90;;
18899;SDS011;9582;52.018;6.306;2023-03-14T03:59:20;7.37;;;1.97;;
18899;SDS011;9582;52.018;6.306;2023-03-14T04:01:47;5.90;;;2.00;;
18899;SDS011;9582;52.018;6.306;2023-03-14T04:04:13;6.27;;;1.80;;
18899;SDS011;9582;52.018;6.306;2023-03-14T04:06:41;4.87;;;1.60;;
18899;SDS011;9582;52.018;6.306;2023-03-14T04:09:08;7.80;;;1.73;;
18899;SDS011;9582;52.018;6.306;2023-03-14T04:11:40;6.97;;;1.73;;
18899;SDS011;9582;52.018;6.306;2023-03-14T04:14:19;6.73;;;1.87;;
18899;SDS011;9582;52.018;6.306;2023-03-14T04:16:47;6.57;;;2.10;;
18899;SDS011;9582;52.018;6.306;2023-03-14T04:19:16;5.13;;;1.87;;
18899;SDS011;9582;52.018;6.306;2023-03-14T04:21:44;7.90;;;2.00;;
18899;SDS011;9582;52.018;6.306;2023-03-14T04:24:12;6.03;;;1.80;;
18899;SDS011;9582;52.018;6.306;2023-03-14T04:26:40;6.23;;;1.83;;
18899;SDS011;9582;52.018;6.306;2023-03-14T04:29:09;9.37;;;2.17;;
18899;SDS011;9582;52.018;6.306;2023-03-14T04:31:35;7.50;;;2.03;;
18899;SDS011;9582;52.018;6.306;2023-03-14T04:34:02;7.27;;;1.80;;
18899;SDS011;9582;52.018;6.306;2023-03-14T04:36:34;8.50;;;2.40;;
18899;SDS011;9582;52.018;6.306;2023-03-14T04:39:06;5.33;;;1.97;;
18899;SDS011;9582;52.018;6.306;2023-03-14T04:41:35;9.20;;;2.40;;
18899;SDS011;9582;52.018;6.306;2023-03-14T04:44:03;9.20;;;2.50;;
18899;SDS011;9582;52.018;6.306;2023-03-14T04:46:29;12.63;;;2.90;;
18899;SDS011;9582;52.018;6.306;2023-03-14T04:48:56;8.40;;;2.17;;
18899;SDS011;9582;52.018;6.306;2023-03-14T04:51:23;5.33;;;1.90;;
18899;SDS011;9582;52.018;6.306;2023-03-14T04:53:52;5.03;;;1.77;;
18899;SDS011;9582;52.018;6.306;2023-03-14T04:56:20;6.57;;;1.63;;
18899;SDS011;9582;52.018;6.306;2023-03-14T04:58:47;6.10;;;1.70;;
18899;SDS011;9582;52.018;6.306;2023-03-14T05:01:16;8.20;;;1.87;;
18899;SDS011;9582;52.018;6.306;2023-03-14T05:03:53;5.87;;;1.93;;
18899;SDS011;9582;52.018;6.306;2023-03-14T05:06:39;8.00;;;2.20;;
18899;SDS011;9582;52.018;6.306;2023-03-14T05:09:18;10.63;;;2.00;;
18899;SDS011;9582;52.018;6.306;2023-03-14T05:12:05;7.23;;;2.13;;
18899;SDS011;9582;52.018;6.306;2023-03-14T05:14:50;8.77;;;1.83;;
18899;SDS011;9582;52.018;6.306;2023-03-14T05:17:33;7.47;;;2.00;;
18899;SDS011;9582;52.018;6.306;2023-03-14T05:20:00;7.07;;;1.67;;
18899;SDS011;9582;52.018;6.306;2023-03-14T05:22:48;6.03;;;1.87;;
18899;SDS011;9582;52.018;6.306;2023-03-14T05:25:24;6.37;;;2.80;;
18899;SDS011;9582;52.018;6.306;2023-03-14T05:28:20;6.07;;;1.43;;
18899;SDS011;9582;52.018;6.306;2023-03-14T05:30:56;7.47;;;1.60;;
18899;SDS011;9582;52.018;6.306;2023-03-14T05:33:22;5.33;;;1.43;;
18899;SDS011;9582;52.018;6.306;2023-03-14T05:36:01;4.60;;;1.63;;
18899;SDS011;9582;52.018;6.306;2023-03-14T05:38:51;6.37;;;2.03;;
18899;SDS011;9582;52.018;6.306;2023-03-14T05:41:37;6.27;;;1.60;;
18899;SDS011;9582;52.018;6.306;2023-03-14T05:44:19;7.03;;;1.40;;
18899;SDS011;9582;52.018;6.306;2023-03-14T05:47:24;7.27;;;1.77;;
18899;SDS011;9582;52.018;6.306;2023-03-14T05:50:10;5.00;;;1.57;;
18899;SDS011;9582;52.018;6.306;2023-03-14T05:52:50;3.57;;;1.40;;
18899;SDS011;9582;52.018;6.306;2023-03-14T05:55:29;2.63;;;1.00;;
18899;SDS011;9582;52.018;6.306;2023-03-14T05:58:28;5.83;;;1.90;;
18899;SDS011;9582;52.018;6.306;2023-03-14T06:01:25;5.77;;;1.70;;
18899;SDS011;9582;52.018;6.306;2023-03-14T06:04:13;5.30;;;1.53;;
18899;SDS011;9582;52.018;6.306;2023-03-14T06:06:40;7.40;;;1.60;;
18899;SDS011;9582;52.018;6.306;2023-03-14T06:09:08;4.80;;;1.40;;
18899;SDS011;9582;52.018;6.306;2023-03-14T06:11:37;5.50;;;1.83;;
18899;SDS011;9582;52.018;6.306;2023-03-14T06:14:05;5.63;;;1.93;;
18899;SDS011;9582;52.018;6.306;2023-03-14T06:16:34;4.17;;;2.13;;
18899;SDS011;9582;52.018;6.306;2023-03-14T06:19:00;6.73;;;1.93;;
18899;SDS011;9582;52.018;6.306;2023-03-14T06:21:28;4.60;;;1.97;;
18899;SDS011;9582;52.018;6.306;2023-03-14T06:23:55;5.23;;;1.90;;
18899;SDS011;9582;52.018;6.306;2023-03-14T06:26:23;4.40;;;1.90;;
18899;SDS011;9582;52.018;6.306;2023-03-14T06:28:50;6.63;;;2.00;;
18899;SDS011;9582;52.018;6.306;2023-03-14T06:31:18;4.67;;;2.23;;
18899;SDS011;9582;52.018;6.306;2023-03-14T06:33:53;4.30;;;1.93;;
18899;SDS011;9582;52.018;6.306;2023-03-14T06:36:21;3.93;;;2.00;;
18899;SDS011;9582;52.018;6.306;2023-03-14T06:38:48;3.50;;;1.93;;
18899;SDS011;9582;52.018;6.306;2023-03-14T06:41:15;3.20;;;1.80;;
18899;SDS011;9582;52.018;6.306;2023-03-14T06:43:43;2.40;;;1.87;;
18899;SDS011;9582;52.018;6.306;2023-03-14T06:46:11;3.10;;;2.20;;
18899;SDS011;9582;52.018;6.306;2023-03-14T06:48:39;3.27;;;1.90;;
18899;SDS011;9582;52.018;6.306;2023-03-14T06:51:08;5.33;;;2.53;;
18899;SDS011;9582;52.018;6.306;2023-03-14T06:53:34;4.87;;;2.53;;
18899;SDS011;9582;52.018;6.306;2023-03-14T06:56:01;4.70;;;2.43;;
18899;SDS011;9582;52.018;6.306;2023-03-14T06:58:30;5.30;;;2.60;;
18899;SDS011;9582;52.018;6.306;2023-03-14T07:00:57;4.80;;;2.70;;
18899;SDS011;9582;52.018;6.306;2023-03-14T07:03:29;4.23;;;2.50;;
18899;SDS011;9582;52.018;6.306;2023-03-14T07:05:57;4.30;;;2.50;;
18899;SDS011;9582;52.018;6.306;2023-03-14T07:08:26;5.40;;;2.63;;
18899;SDS011;9582;52.018;6.306;2023-03-14T07:10:52;5.13;;;2.77;;
18899;SDS011;9582;52.018;6.306;2023-03-14T07:13:21;5.73;;;2.43;;
18899;SDS011;9582;52.018;6.306;2023-03-14T07:15:54;4.27;;;3.10;;
18899;SDS011;9582;52.018;6.306;2023-03-14T07:18:21;5.20;;;3.10;;
18899;SDS011;9582;52.018;6.306;2023-03-14T07:20:48;4.87;;;3.03;;
18899;SDS011;9582;52.018;6.306;2023-03-14T07:23:15;5.70;;;3.43;;
18899;SDS011;9582;52.018;6.306;2023-03-14T07:25:48;6.47;;;3.27;;
18899;SDS011;9582;52.018;6.306;2023-03-14T07:28:18;5.13;;;3.03;;
18899;SDS011;9582;52.018;6.306;2023-03-14T07:30:47;4.93;;;3.37;;
18899;SDS011;9582;52.018;6.306;2023-03-14T07:33:19;6.67;;;3.37;;
18899;SDS011;9582;52.018;6.306;2023-03-14T07:35:46;5.23;;;3.30;;
18899;SDS011;9582;52.018;6.306;2023-03-14T07:38:13;4.80;;;3.37;;
18899;SDS011;9582;52.018;6.306;2023-03-14T07:40:58;5.87;;;3.67;;
18899;SDS011;9582;52.018;6.306;2023-03-14T07:43:26;4.50;;;2.80;;
18899;SDS011;9582;52.018;6.306;2023-03-14T07:45:56;5.23;;;3.63;;
18899;SDS011;9582;52.018;6.306;2023-03-14T07:48:23;7.43;;;3.80;;
18899;SDS011;9582;52.018;6.306;2023-03-14T07:50:52;4.20;;;3.60;;
18899;SDS011;9582;52.018;6.306;2023-03-14T07:53:19;4.63;;;3.77;;
18899;SDS011;9582;52.018;6.306;2023-03-14T07:55:47;4.33;;;3.40;;
18899;SDS011;9582;52.018;6.306;2023-03-14T07:58:15;4.63;;;3.10;;
18899;SDS011;9582;52.018;6.306;2023-03-14T08:00:41;3.00;;;2.30;;
18899;SDS011;9582;52.018;6.306;2023-03-14T08:03:09;2.63;;;1.30;;
18899;SDS011;9582;52.018;6.306;2023-03-14T08:05:36;2.83;;;1.40;;
18899;SDS011;9582;52.018;6.306;2023-03-14T08:08:03;1.90;;;1.37;;
18899;SDS011;9582;52.018;6.306;2023-03-14T08:10:30;2.67;;;1.13;;
18899;SDS011;9582;52.018;6.306;2023-03-14T08:12:58;1.57;;;0.80;;
18899;SDS011;9582;52.018;6.306;2023-03-14T08:15:28;0.73;;;0.40;;
18899;SDS011;9582;52.018;6.306;2023-03-14T08:17:55;1.20;;;0.37;;
18899;SDS011;9582;52.018;6.306;2023-03-14T08:20:22;0.80;;;0.50;;
18899;SDS011;9582;52.018;6.306;2023-03-14T08:22:49;0.40;;;0.30;;
18899;SDS011;9582;52.018;6.306;2023-03-14T08:25:16;0.37;;;0.30;;
18899;SDS011;9582;52.018;6.306;2023-03-14T08:27:43;0.77;;;0.40;;
18899;SDS011;9582;52.018;6.306;2023-03-14T08:30:11;0.57;;;0.33;;
18899;SDS011;9582;52.018;6.306;2023-03-14T08:32:40;1.83;;;0.67;;
18899;SDS011;9582;52.018;6.306;2023-03-14T08:35:07;0.97;;;0.40;;
18899;SDS011;9582;52.018;6.306;2023-03-14T08:37:35;0.50;;;0.50;;
18899;SDS011;9582;52.018;6.306;2023-03-14T08:40:01;0.83;;;0.50;;
18899;SDS011;9582;52.018;6.306;2023-03-14T08:42:31;0.97;;;0.60;;
18899;SDS011;9582;52.018;6.306;2023-03-14T08:44:58;0.80;;;0.73;;
18899;SDS011;9582;52.018;6.306;2023-03-14T08:47:24;1.30;;;0.77;;
18899;SDS011;9582;52.018;6.306;2023-03-14T08:49:52;1.40;;;0.40;;
18899;SDS011;9582;52.018;6.306;2023-03-14T08:52:19;0.40;;;0.40;;
18899;SDS011;9582;52.018;6.306;2023-03-14T08:54:46;0.53;;;0.43;;
18899;SDS011;9582;52.018;6.306;2023-03-14T08:57:12;2.40;;;0.70;;
18899;SDS011;9582;52.018;6.306;2023-03-14T08:59:39;1.97;;;0.50;;
18899;SDS011;9582;52.018;6.306;2023-03-14T09:02:05;2.63;;;0.90;;
18899;SDS011;9582;52.018;6.306;2023-03-14T09:04:32;2.20;;;0.90;;
18899;SDS011;9582;52.018;6.306;2023-03-14T09:07:00;3.17;;;1.27;;
18899;SDS011;9582;52.018;6.306;2023-03-14T09:09:26;3.73;;;1.20;;
18899;SDS011;9582;52.018;6.306;2023-03-14T09:11:53;3.30;;;1.00;;
18899;SDS011;9582;52.018;6.306;2023-03-14T09:14:19;1.73;;;1.10;;
18899;SDS011;9582;52.018;6.306;2023-03-14T09:16:46;3.17;;;1.23;;
18899;SDS011;9582;52.018;6.306;2023-03-14T09:19:12;4.67;;;1.10;;
18899;SDS011;9582;52.018;6.306;2023-03-14T09:21:39;1.80;;;0.80;;
18899;SDS011;9582;52.018;6.306;2023-03-14T09:24:07;3.60;;;0.63;;
18899;SDS011;9582;52.018;6.306;2023-03-14T09:26:33;1.87;;;0.77;;
18899;SDS011;9582;52.018;6.306;2023-03-14T09:29:00;1.47;;;0.47;;
18899;SDS011;9582;52.018;6.306;2023-03-14T09:31:26;1.50;;;0.80;;
18899;SDS011;9582;52.018;6.306;2023-03-14T09:33:54;1.97;;;0.40;;
18899;SDS011;9582;52.018;6.306;2023-03-14T09:36:21;1.03;;;0.43;;
18899;SDS011;9582;52.018;6.306;2023-03-14T09:38:47;1.70;;;0.50;;
18899;SDS011;9582;52.018;6.306;2023-03-14T09:41:16;0.60;;;0.50;;
18899;SDS011;9582;52.018;6.306;2023-03-14T09:43:45;2.97;;;0.83;;
18899;SDS011;9582;52.018;6.306;2023-03-14T09:46:16;1.50;;;1.00;;
18899;SDS011;9582;52.018;6.306;2023-03-14T09:48:43;3.30;;;1.60;;
18899;SDS011;9582;52.018;6.306;2023-03-14T09:51:12;3.57;;;1.30;;
18899;SDS011;9582;52.018;6.306;2023-03-14T09:53:40;4.33;;;1.10;;
18899;SDS011;9582;52.018;6.306;2023-03-14T09:56:10;3.23;;;0.90;;
18899;SDS011;9582;52.018;6.306;2023-03-14T09:58:41;4.23;;;0.60;;
18899;SDS011;9582;52.018;6.306;2023-03-14T10:01:13;3.80;;;0.87;;
18899;SDS011;9582;52.018;6.306;2023-03-14T10:03:44;1.67;;;0.80;;
18899;SDS011;9582;52.018;6.306;2023-03-14T10:06:12;4.53;;;0.90;;
18899;SDS011;9582;52.018;6.306;2023-03-14T10:08:40;5.30;;;0.70;;
18899;SDS011;9582;52.018;6.306;2023-03-14T10:11:09;2.33;;;1.00;;
18899;SDS011;9582;52.018;6.306;2023-03-14T10:13:48;3.07;;;0.93;;
18899;SDS011;9582;52.018;6.306;2023-03-14T10:16:16;3.07;;;0.90;;
18899;SDS011;9582;52.018;6.306;2023-03-14T10:18:44;2.17;;;0.50;;
18899;SDS011;9582;52.018;6.306;2023-03-14T10:21:17;2.67;;;1.00;;
18899;SDS011;9582;52.018;6.306;2023-03-14T10:23:47;2.03;;;0.87;;
18899;SDS011;9582;52.018;6.306;2023-03-14T10:26:14;1.20;;;0.80;;
18899;SDS011;9582;52.018;6.306;2023-03-14T10:28:42;4.00;;;1.30;;
18899;SDS011;9582;52.018;6.306;2023-03-14T10:31:11;4.70;;;1.07;;
18899;SDS011;9582;52.018;6.306;2023-03-14T10:33:38;5.00;;;1.30;;
18899;SDS011;9582;52.018;6.306;2023-03-14T10:36:06;4.20;;;1.27;;
18899;SDS011;9582;52.018;6.306;2023-03-14T10:38:45;4.93;;;0.90;;
18899;SDS011;9582;52.018;6.306;2023-03-14T10:41:15;2.03;;;0.90;;
18899;SDS011;9582;52.018;6.306;2023-03-14T10:43:45;6.27;;;1.17;;
18899;SDS011;9582;52.018;6.306;2023-03-14T10:46:19;6.63;;;1.37;;
18899;SDS011;9582;52.018;6.306;2023-03-14T10:49:05;5.33;;;1.07;;
18899;SDS011;9582;52.018;6.306;2023-03-14T10:51:32;4.57;;;1.03;;
18899;SDS011;9582;52.018;6.306;2023-03-14T10:53:59;6.13;;;1.30;;
18899;SDS011;9582;52.018;6.306;2023-03-14T10:56:28;6.03;;;1.47;;
18899;SDS011;9582;52.018;6.306;2023-03-14T10:59:00;6.60;;;1.93;;
18899;SDS011;9582;52.018;6.306;2023-03-14T11:01:31;8.07;;;1.57;;
18899;SDS011;9582;52.018;6.306;2023-03-14T11:04:08;6.93;;;2.00;;
18899;SDS011;9582;52.018;6.306;2023-03-14T11:06:47;8.20;;;1.97;;
18899;SDS011;9582;52.018;6.306;2023-03-14T11:09:21;8.30;;;1.63;;
18899;SDS011;9582;52.018;6.306;2023-03-14T11:11:56;5.73;;;1.63;;
18899;SDS011;9582;52.018;6.306;2023-03-14T11:14:29;6.90;;;1.90;;
18899;SDS011;9582;52.018;6.306;2023-03-14T11:17:04;11.23;;;2.30;;
18899;SDS011;9582;52.018;6.306;2023-03-14T11:19:51;6.53;;;2.17;;
18899;SDS011;9582;52.018;6.306;2023-03-14T11:22:24;8.97;;;1.70;;
18899;SDS011;9582;52.018;6.306;2023-03-14T11:25:02;4.50;;;1.03;;
18899;SDS011;9582;52.018;6.306;2023-03-14T11:27:39;8.83;;;1.90;;
18899;SDS011;9582;52.018;6.306;2023-03-14T11:30:14;10.80;;;2.50;;
18899;SDS011;9582;52.018;6.306;2023-03-14T11:32:46;7.53;;;1.80;;
18899;SDS011;9582;52.018;6.306;2023-03-14T11:35:18;9.13;;;1.90;;
18899;SDS011;9582;52.018;6.306;2023-03-14T11:37:51;11.43;;;2.90;;
18899;SDS011;9582;52.018;6.306;2023-03-14T11:40:21;8.30;;;1.90;;
18899;SDS011;9582;52.018;6.306;2023-03-14T11:42:51;9.17;;;1.90;;
18899;SDS011;9582;52.018;6.306;2023-03-14T11:45:25;15.07;;;3.13;;
18899;SDS011;9582;52.018;6.306;2023-03-14T11:48:01;15.17;;;3.07;;
18899;SDS011;9582;52.018;6.306;2023-03-14T11:50:39;10.63;;;2.13;;
18899;SDS011;9582;52.018;6.306;2023-03-14T11:53:09;11.77;;;2.20;;
18899;SDS011;9582;52.018;6.306;2023-03-14T11:55:40;11.80;;;2.43;;
18899;SDS011;9582;52.018;6.306;2023-03-14T11:58:10;16.17;;;2.30;;
18899;SDS011;9582;52.018;6.306;2023-03-14T12:00:41;12.03;;;2.93;;
18899;SDS011;9582;52.018;6.306;2023-03-14T12:03:13;18.80;;;2.67;;
18899;SDS011;9582;52.018;6.306;2023-03-14T12:05:46;15.80;;;3.10;;
18899;SDS011;9582;52.018;6.306;2023-03-14T12:08:30;10.90;;;2.37;;
18899;SDS011;9582;52.018;6.306;2023-03-14T12:11:04;6.40;;;1.77;;
18899;SDS011;9582;52.018;6.306;2023-03-14T12:13:39;14.10;;;2.63;;
18899;SDS011;9582;52.018;6.306;2023-03-14T12:16:07;4.83;;;2.07;;
18899;SDS011;9582;52.018;6.306;2023-03-14T12:18:47;10.80;;;2.13;;
18899;SDS011;9582;52.018;6.306;2023-03-14T12:21:14;10.77;;;2.33;;
18899;SDS011;9582;52.018;6.306;2023-03-14T12:23:42;9.43;;;2.37;;
18899;SDS011;9582;52.018;6.306;2023-03-14T12:26:15;9.90;;;2.13;;
18899;SDS011;9582;52.018;6.306;2023-03-14T12:28:44;8.43;;;1.90;;
18899;SDS011;9582;52.018;6.306;2023-03-14T12:36:56;6.17;;;1.43;;
18899;SDS011;9582;52.018;6.306;2023-03-14T12:39:33;8.33;;;1.90;;
18899;SDS011;9582;52.018;6.306;2023-03-14T12:42:09;6.50;;;2.20;;
18899;SDS011;9582;52.018;6.306;2023-03-14T12:44:41;7.97;;;1.57;;
18899;SDS011;9582;52.018;6.306;2023-03-14T12:50:20;5.93;;;1.50;;
18899;SDS011;9582;52.018;6.306;2023-03-14T12:52:55;6.50;;;1.60;;
18899;SDS011;9582;52.018;6.306;2023-03-14T12:55:37;5.80;;;1.83;;
18899;SDS011;9582;52.018;6.306;2023-03-14T12:58:13;7.27;;;1.17;;
18899;SDS011;9582;52.018;6.306;2023-03-14T13:00:45;7.00;;;1.40;;
18899;SDS011;9582;52.018;6.306;2023-03-14T13:03:21;9.03;;;1.77;;
18899;SDS011;9582;52.018;6.306;2023-03-14T13:05:53;8.47;;;1.93;;
18899;SDS011;9582;52.018;6.306;2023-03-14T13:08:32;11.77;;;2.17;;
18899;SDS011;9582;52.018;6.306;2023-03-14T13:11:01;10.83;;;2.37;;
18899;SDS011;9582;52.018;6.306;2023-03-14T13:13:31;5.70;;;1.10;;
18899;SDS011;9582;52.018;6.306;2023-03-14T13:16:02;4.97;;;1.37;;
18899;SDS011;9582;52.018;6.306;2023-03-14T13:18:30;9.30;;;1.97;;
18899;SDS011;9582;52.018;6.306;2023-03-14T13:21:03;4.87;;;1.47;;
18899;SDS011;9582;52.018;6.306;2023-03-14T13:23:33;4.83;;;1.27;;
18899;SDS011;9582;52.018;6.306;2023-03-14T13:26:01;6.67;;;1.40;;
18899;SDS011;9582;52.018;6.306;2023-03-14T13:28:29;3.27;;;1.20;;
18899;SDS011;9582;52.018;6.306;2023-03-14T13:30:58;5.30;;;1.53;;
18899;SDS011;9582;52.018;6.306;2023-03-14T13:33:26;3.13;;;0.97;;
18899;SDS011;9582;52.018;6.306;2023-03-14T13:35:56;5.17;;;0.97;;
18899;SDS011;9582;52.018;6.306;2023-03-14T13:38:25;6.40;;;1.63;;
18899;SDS011;9582;52.018;6.306;2023-03-14T13:40:54;2.47;;;1.10;;
18899;SDS011;9582;52.018;6.306;2023-03-14T13:43:25;6.53;;;1.50;;
18899;SDS011;9582;52.018;6.306;2023-03-14T13:45:56;3.03;;;0.87;;
18899;SDS011;9582;52.018;6.306;2023-03-14T13:48:29;4.60;;;1.87;;
18899;SDS011;9582;52.018;6.306;2023-03-14T13:50:58;10.30;;;1.60;;
18899;SDS011;9582;52.018;6.306;2023-03-14T13:53:30;7.23;;;1.67;;
18899;SDS011;9582;52.018;6.306;2023-03-14T13:56:00;4.30;;;1.40;;
18899;SDS011;9582;52.018;6.306;2023-03-14T13:58:28;3.87;;;1.17;;
18899;SDS011;9582;52.018;6.306;2023-03-14T14:00:58;4.53;;;1.60;;
18899;SDS011;9582;52.018;6.306;2023-03-14T14:03:28;4.30;;;1.50;;
18899;SDS011;9582;52.018;6.306;2023-03-14T14:05:58;5.80;;;1.50;;
18899;SDS011;9582;52.018;6.306;2023-03-14T14:08:25;8.20;;;1.80;;
18899;SDS011;9582;52.018;6.306;2023-03-14T14:10:54;5.33;;;1.10;;
18899;SDS011;9582;52.018;6.306;2023-03-14T14:13:24;4.20;;;1.30;;
18899;SDS011;9582;52.018;6.306;2023-03-14T14:15:53;5.20;;;1.20;;
18899;SDS011;9582;52.018;6.306;2023-03-14T14:18:22;3.13;;;1.00;;
18899;SDS011;9582;52.018;6.306;2023-03-14T14:20:52;2.37;;;0.97;;
18899;SDS011;9582;52.018;6.306;2023-03-14T14:23:21;3.83;;;1.40;;
18899;SDS011;9582;52.018;6.306;2023-03-14T14:25:51;3.43;;;0.90;;
18899;SDS011;9582;52.018;6.306;2023-03-14T14:28:23;4.10;;;1.30;;
18899;SDS011;9582;52.018;6.306;2023-03-14T14:30:59;4.47;;;1.00;;
18899;SDS011;9582;52.018;6.306;2023-03-14T14:33:27;2.63;;;1.10;;
18899;SDS011;9582;52.018;6.306;2023-03-14T14:35:54;3.87;;;0.83;;
18899;SDS011;9582;52.018;6.306;2023-03-14T14:38:22;3.87;;;1.03;;
18899;SDS011;9582;52.018;6.306;2023-03-14T14:40:50;4.13;;;1.20;;
18899;SDS011;9582;52.018;6.306;2023-03-14T14:43:22;3.90;;;1.17;;
18899;SDS011;9582;52.018;6.306;2023-03-14T14:45:52;3.67;;;1.20;;
18899;SDS011;9582;52.018;6.306;2023-03-14T14:48:21;4.37;;;1.30;;
18899;SDS011;9582;52.018;6.306;2023-03-14T14:50:49;5.13;;;1.00;;
18899;SDS011;9582;52.018;6.306;2023-03-14T14:53:23;3.10;;;1.43;;
18899;SDS011;9582;52.018;6.306;2023-03-14T14:55:53;4.17;;;1.10;;
18899;SDS011;9582;52.018;6.306;2023-03-14T14:58:24;8.00;;;1.80;;
18899;SDS011;9582;52.018;6.306;2023-03-14T15:00:53;4.40;;;1.10;;
18899;SDS011;9582;52.018;6.306;2023-03-14T15:03:22;7.73;;;1.10;;
18899;SDS011;9582;52.018;6.306;2023-03-14T15:05:53;3.90;;;0.93;;
18899;SDS011;9582;52.018;6.306;2023-03-14T15:08:21;5.93;;;1.10;;
18899;SDS011;9582;52.018;6.306;2023-03-14T15:10:48;3.90;;;1.63;;
18899;SDS011;9582;52.018;6.306;2023-03-14T15:13:14;3.57;;;1.27;;
18899;SDS011;9582;52.018;6.306;2023-03-14T15:15:42;4.77;;;1.20;;
18899;SDS011;9582;52.018;6.306;2023-03-14T15:18:13;5.47;;;1.20;;
18899;SDS011;9582;52.018;6.306;2023-03-14T15:20:41;4.00;;;0.93;;
18899;SDS011;9582;52.018;6.306;2023-03-14T15:23:09;4.10;;;1.33;;
18899;SDS011;9582;52.018;6.306;2023-03-14T15:25:37;4.70;;;1.30;;
18899;SDS011;9582;52.018;6.306;2023-03-14T15:28:05;5.73;;;0.97;;
18899;SDS011;9582;52.018;6.306;2023-03-14T15:30:37;5.10;;;1.40;;
18899;SDS011;9582;52.018;6.306;2023-03-14T15:33:05;5.57;;;1.33;;
18899;SDS011;9582;52.018;6.306;2023-03-14T15:35:34;6.77;;;1.80;;